»·PEaware :: FDX5954 KLAS-KSAN

FDX5954 :: KLAS-KSAN

FLIGHT INFORMATION

Flight Status: Arrived
Operator:
Federal Express
More flights by this operator :: More flights under this callsign
Pilot: Joshua M. (19482)
Aircraft: BOEING 737-800
(B738)
More flights by this aircraft type
Origin: KLAS McCarran Intl
United States
Destination: KSAN San Diego Intl-Lindbergh
United States
More flights between these airports :: More routes between these airports
Route: +BOACH8 TNP BARET5
File this flight plan on PilotEdge
Remarks: Outdated FMC Default XPlane
Altitude:
(Current/Filed)
30,000ft
Speed:
(Current/Filed)
450kts
Departed: 26-Jul-18 08:56 PM
Arrived: 26-Jul-18 09:46 PM
Distance/Time
Traveled:
225nm/0:50
Distance/Time
To Go:
Arrived

Flight Plot

Page will automatically refresh every two minutes.

Flight plan parsing failed; only flown route is shown


Map Options




Map Legend


Flown Route
Filed Route
Departure Airport
Arrival Airport
Navaid (VOR, NDB)
Fix

Horizontal Profiles

Position Reports

Time Latitude Longitude Heading Altitude Ground
Speed
26-Jul-18 20:28 36.079639 -115.125571 89 2189ft 0kts
26-Jul-18 20:29 36.079639 -115.125571 89 2189ft 0kts
26-Jul-18 20:30 36.079639 -115.125571 89 2189ft 0kts
26-Jul-18 20:31 36.079639 -115.125571 89 2189ft 0kts
26-Jul-18 20:32 36.079639 -115.125571 89 2189ft 0kts
26-Jul-18 20:33 36.079639 -115.125571 89 2189ft 0kts
26-Jul-18 20:34 36.079639 -115.125572 89 2189ft 0kts
26-Jul-18 20:35 36.079639 -115.125572 89 2189ft 0kts
26-Jul-18 20:36 36.079682 -115.125865 82 2189ft 2kts
26-Jul-18 20:37 36.079668 -115.126595 88 2189ft 2kts
26-Jul-18 20:38 36.079665 -115.126781 89 2189ft 0kts
26-Jul-18 20:39 36.079665 -115.126781 89 2189ft 0kts
26-Jul-18 20:40 36.079665 -115.126780 89 2189ft 0kts
26-Jul-18 20:41 36.079665 -115.126780 89 2189ft 0kts
26-Jul-18 20:42 36.079653 -115.126505 110 2189ft 4kts
26-Jul-18 20:43 36.079071 -115.126376 179 2189ft 0kts
26-Jul-18 20:44 36.079071 -115.126376 179 2189ft 0kts
26-Jul-18 20:45 36.079071 -115.126376 179 2189ft 0kts
26-Jul-18 20:46 36.079071 -115.126376 179 2189ft 0kts
26-Jul-18 20:47 36.079071 -115.126376 179 2189ft 0kts
26-Jul-18 20:48 36.079071 -115.126376 179 2189ft 0kts
26-Jul-18 20:49 36.078727 -115.126393 190 2189ft 13kts
26-Jul-18 20:50 36.078287 -115.132156 270 2189ft 19kts
26-Jul-18 20:51 36.078164 -115.139222 272 2189ft 19kts
26-Jul-18 20:52 36.078343 -115.145840 273 2189ft 17kts
26-Jul-18 20:53 36.078020 -115.154138 270 2189ft 30kts
26-Jul-18 20:54 36.077930 -115.162890 247 2189ft 14kts
26-Jul-18 20:55 36.074996 -115.165246 271 2189ft 11kts
26-Jul-18 20:56 36.075617 -115.166700 25 2189ft 0kts
26-Jul-18 20:57 36.091776 -115.157528 26 2384ft 162kts
26-Jul-18 20:58 36.133941 -115.176113 289 4426ft 217kts
26-Jul-18 20:59 36.119073 -115.247876 254 6470ft 227kts
26-Jul-18 21:00 36.077801 -115.301388 203 8508ft 236kts
26-Jul-18 21:01 36.017192 -115.332055 202 9480ft 239kts
26-Jul-18 21:02 35.954884 -115.362754 202 10212ft 248kts
26-Jul-18 21:03 35.886606 -115.374025 163 12962ft 273kts
26-Jul-18 21:04 35.807871 -115.344935 162 15115ft 319kts
26-Jul-18 21:05 35.722429 -115.311903 162 17969ft 331kts
26-Jul-18 21:06 35.630314 -115.297372 181 20513ft 344kts
26-Jul-18 21:07 35.531868 -115.300604 181 22522ft 365kts
26-Jul-18 21:08 35.428437 -115.304655 182 24489ft 380kts
26-Jul-18 21:09 35.330930 -115.308475 181 26191ft 391kts
26-Jul-18 21:10 35.223503 -115.312521 185 28191ft 388kts
26-Jul-18 21:11 35.114425 -115.316984 185 28781ft 397kts
26-Jul-18 21:12 35.003728 -115.321326 185 29508ft 403kts
26-Jul-18 21:13 34.900595 -115.325372 185 29768ft 419kts
26-Jul-18 21:14 34.798433 -115.329969 190 29824ft 435kts
26-Jul-18 21:15 34.686620 -115.372580 202 29890ft 436kts
26-Jul-18 21:16 34.574417 -115.421398 202 29843ft 432kts
26-Jul-18 21:17 34.462445 -115.470215 202 29842ft 432kts
26-Jul-18 21:18 34.356881 -115.516124 202 29841ft 432kts
26-Jul-18 21:19 34.263595 -115.600624 224 29842ft 426kts
26-Jul-18 21:20 34.180880 -115.692964 224 29846ft 426kts
26-Jul-18 21:21 34.088379 -115.774898 198 28139ft 436kts
26-Jul-18 21:22 33.981051 -115.808421 196 26093ft 421kts
26-Jul-18 21:23 33.871842 -115.840574 195 23953ft 445kts
26-Jul-18 21:24 33.752989 -115.875284 195 23981ft 445kts
26-Jul-18 21:25 33.638716 -115.908586 195 23906ft 437kts
26-Jul-18 21:26 33.526525 -115.951226 216 23837ft 432kts
26-Jul-18 21:27 33.451788 -116.054853 236 23831ft 412kts
26-Jul-18 21:28 33.388900 -116.161820 235 22897ft 400kts
26-Jul-18 21:29 33.313448 -116.247457 223 20984ft 392kts
26-Jul-18 21:30 33.233706 -116.331509 223 18716ft 390kts
26-Jul-18 21:31 33.155592 -116.413394 222 16313ft 387kts
26-Jul-18 21:32 33.079598 -116.492830 221 14210ft 375kts
26-Jul-18 21:33 33.007433 -116.568082 221 12554ft 340kts
26-Jul-18 21:34 32.942727 -116.630346 202 11811ft 304kts
26-Jul-18 21:35 32.863665 -116.654651 192 11802ft 302kts
26-Jul-18 21:36 32.782919 -116.675687 192 11077ft 298kts
26-Jul-18 21:37 32.703791 -116.695915 192 8522ft 288kts
26-Jul-18 21:38 32.630051 -116.713801 192 6893ft 250kts
26-Jul-18 21:39 32.572659 -116.747679 249 5871ft 237kts
26-Jul-18 21:40 32.594247 -116.812856 315 4823ft 232kts
26-Jul-18 21:41 32.641160 -116.864404 317 4832ft 220kts
26-Jul-18 21:42 32.669192 -116.924967 285 3697ft 218kts
26-Jul-18 21:43 32.685539 -116.992332 285 3366ft 209kts
26-Jul-18 21:44 32.701743 -117.058654 284 2150ft 205kts
26-Jul-18 21:45 32.717005 -117.120958 285 1669ft 164kts
26-Jul-18 21:46 32.729442 -117.171862 282 276ft 157kts
26-Jul-18 21:47 32.736679 -117.202699 286 25ft 22kts
26-Jul-18 21:48 32.736160 -117.204211 168 25ft 1kts
26-Jul-18 21:49 32.735365 -117.201367 105 25ft 14kts
26-Jul-18 21:50 32.733822 -117.194937 104 25ft 25kts
26-Jul-18 21:51 32.734603 -117.189179 105 25ft 17kts
26-Jul-18 21:52 32.734290 -117.183890 355 25ft 18kts

Navigation Log

Ident Type
Flight plan parsing failed, navigation log unavailable